createdAt,value
2019-03-30T00:02:12.443Z,60.38
2019-03-30T00:04:46.068Z,61.90
2019-03-30T00:07:19.737Z,62.10
2019-03-30T00:09:53.365Z,62.70
2019-03-30T00:12:26.991Z,64.64
2019-03-30T00:15:00.661Z,54.05
2019-03-30T00:17:35.043Z,48.71
2019-03-30T00:20:08.866Z,51.10
2019-03-30T00:22:42.505Z,53.34
2019-03-30T00:25:16.233Z,55.25
2019-03-30T00:27:49.908Z,57.27
2019-03-30T00:30:23.562Z,58.41
2019-03-30T00:32:57.040Z,59.22
2019-03-30T00:35:30.586Z,60.88
2019-03-30T00:38:04.097Z,61.95
2019-03-30T00:40:39.600Z,63.47
2019-03-30T00:43:32.503Z,61.86
2019-03-30T00:46:19.313Z,52.25
2019-03-30T00:49:10.075Z,53.37
2019-03-30T00:51:56.329Z,56.19
2019-03-30T00:54:44.317Z,58.13
2019-03-30T00:57:31.079Z,59.71
2019-03-30T01:00:18.298Z,60.84
2019-03-30T01:02:53.957Z,61.72
2019-03-30T01:05:29.418Z,62.36
2019-03-30T01:08:04.857Z,65.56
2019-03-30T01:10:40.365Z,54.30
2019-03-30T01:13:27.307Z,48.48
2019-03-30T01:16:21.200Z,51.31
2019-03-30T01:19:09.119Z,54.07
2019-03-30T01:21:45.718Z,56.26
2019-03-30T01:24:21.342Z,57.80
2019-03-30T01:27:08.367Z,59.32
2019-03-30T01:30:03.769Z,60.03
2019-03-30T01:32:39.365Z,61.27
2019-03-30T01:35:15.096Z,62.68
2019-03-30T01:37:50.294Z,65.10
2019-03-30T01:40:27.376Z,53.13
2019-03-30T01:43:14.457Z,48.38
2019-03-30T01:46:02.104Z,51.16
2019-03-30T01:48:50.605Z,53.56
2019-03-30T01:51:44.013Z,55.58
2019-03-30T01:54:31.357Z,57.52
2019-03-30T01:57:23.935Z,58.87
2019-03-30T02:00:12.661Z,60.05
2019-03-30T02:02:48.182Z,60.80
2019-03-30T02:05:41.126Z,62.08
2019-03-30T02:08:36.364Z,64.55
2019-03-30T02:11:14.096Z,52.22
2019-03-30T02:14:00.829Z,48.18
2019-03-30T02:16:47.809Z,50.81
2019-03-30T02:19:34.576Z,53.15
2019-03-30T02:22:08.165Z,55.44
2019-03-30T02:24:41.794Z,57.85
2019-03-30T02:27:15.466Z,58.53
2019-03-30T02:29:49.203Z,59.67
2019-03-30T02:32:22.792Z,60.71
2019-03-30T02:34:56.553Z,61.71
2019-03-30T02:37:30.168Z,62.89
2019-03-30T02:40:03.821Z,65.15
2019-03-30T02:42:37.449Z,52.30
2019-03-30T02:45:11.151Z,48.09
2019-03-30T02:47:44.905Z,51.00
2019-03-30T02:50:18.531Z,53.87
2019-03-30T02:52:52.451Z,55.62
2019-03-30T02:55:26.243Z,57.21
2019-03-30T02:57:59.924Z,58.30
2019-03-30T03:00:33.598Z,59.41
2019-03-30T03:03:07.402Z,60.13
2019-03-30T03:05:41.052Z,60.98
2019-03-30T03:08:14.823Z,62.20
2019-03-30T03:10:49.527Z,65.37
2019-03-30T03:13:23.171Z,53.83
2019-03-30T03:15:56.786Z,48.35
2019-03-30T03:18:30.397Z,50.71
2019-03-30T03:21:07.777Z,52.98
2019-03-30T03:23:39.360Z,54.61
2019-03-30T03:26:12.961Z,56.04
2019-03-30T03:28:46.641Z,57.59
2019-03-30T03:31:20.315Z,58.71
2019-03-30T03:33:53.881Z,59.90
2019-03-30T03:36:28.359Z,60.65
2019-03-30T03:39:02.030Z,61.55
2019-03-30T03:41:36.861Z,62.46
2019-03-30T03:44:10.511Z,65.96
2019-03-30T03:46:44.193Z,54.72
2019-03-30T03:49:17.872Z,47.99
2019-03-30T03:51:51.785Z,50.12
2019-03-30T03:54:25.627Z,52.57
2019-03-30T03:57:01.346Z,54.62
2019-03-30T03:59:37.464Z,56.14
2019-03-30T04:02:12.385Z,57.84
2019-03-30T04:04:47.930Z,59.01
2019-03-30T04:07:23.352Z,59.87
2019-03-30T04:10:00.907Z,60.34
2019-03-30T04:12:37.664Z,61.54
2019-03-30T04:15:14.982Z,62.15
2019-03-30T04:17:48.755Z,65.47
2019-03-30T04:20:25.346Z,54.76
2019-03-30T04:22:58.945Z,47.76
2019-03-30T04:25:32.563Z,50.41
2019-03-30T04:28:06.309Z,53.21
2019-03-30T04:30:40.031Z,55.24
2019-03-30T04:33:13.685Z,57.31
2019-03-30T04:35:47.402Z,58.56
2019-03-30T04:38:20.979Z,60.12
2019-03-30T04:40:54.640Z,61.91
2019-03-30T04:43:28.394Z,64.38
2019-03-30T04:46:02.066Z,63.12
2019-03-30T04:48:35.750Z,50.14
2019-03-30T04:51:09.374Z,47.52
2019-03-30T04:53:43.100Z,50.42
2019-03-30T04:56:16.697Z,52.93
2019-03-30T04:58:50.501Z,54.89
2019-03-30T05:01:24.474Z,56.36
2019-03-30T05:03:58.298Z,57.62
2019-03-30T05:06:31.996Z,58.76
2019-03-30T05:09:07.092Z,59.67
2019-03-30T05:11:40.827Z,60.16
2019-03-30T05:14:14.571Z,60.79
2019-03-30T05:16:48.307Z,61.66
2019-03-30T05:19:24.113Z,62.63
2019-03-30T05:22:11.121Z,66.58
2019-03-30T05:24:33.163Z,54.72
2019-03-30T05:27:06.872Z,48.66
2019-03-30T05:29:40.950Z,51.14
2019-03-30T05:32:14.713Z,53.77
2019-03-30T05:34:48.593Z,56.03
2019-03-30T05:37:22.205Z,57.95
2019-03-30T05:39:55.852Z,59.42
2019-03-30T05:42:29.584Z,60.86
2019-03-30T05:45:03.287Z,62.29
2019-03-30T05:47:36.908Z,65.42
2019-03-30T05:50:11.564Z,54.42
2019-03-30T05:52:45.282Z,48.85
2019-03-30T05:55:18.992Z,51.48
2019-03-30T05:57:52.613Z,53.98
2019-03-30T06:00:26.442Z,56.13
2019-03-30T06:03:02.894Z,57.76
2019-03-30T06:05:36.797Z,59.08
2019-03-30T06:08:10.484Z,60.34
2019-03-30T06:10:44.182Z,61.61
2019-03-30T06:13:17.866Z,62.90
2019-03-30T06:15:51.504Z,66.15
2019-03-30T06:18:25.164Z,54.80
2019-03-30T06:20:58.859Z,49.41
2019-03-30T06:23:32.602Z,51.95
2019-03-30T06:26:07.398Z,54.63
2019-03-30T06:28:41.136Z,57.09
2019-03-30T06:31:14.986Z,58.89
2019-03-30T06:33:48.753Z,60.39
2019-03-30T06:36:22.493Z,61.48
2019-03-30T06:38:56.134Z,63.70
2019-03-30T06:41:29.745Z,64.47
2019-03-30T06:44:03.425Z,52.39
2019-03-30T06:46:39.539Z,49.66
2019-03-30T06:49:12.739Z,52.53
2019-03-30T06:51:46.729Z,55.13
2019-03-30T06:54:20.389Z,57.30
2019-03-30T06:56:54.152Z,59.06
2019-03-30T06:59:27.832Z,60.59
2019-03-30T07:02:01.690Z,62.22
2019-03-30T07:04:35.331Z,63.99
2019-03-30T07:07:10.998Z,52.87
2019-03-30T07:09:48.324Z,49.74
2019-03-30T07:12:25.544Z,52.52
2019-03-30T07:15:02.178Z,55.21
2019-03-30T07:17:47.003Z,57.10
2019-03-30T07:20:31.495Z,58.80
2019-03-30T07:23:11.895Z,60.14
2019-03-30T07:25:41.076Z,61.33
2019-03-30T07:28:32.377Z,62.48
2019-03-30T07:31:23.839Z,62.59
2019-03-30T07:33:57.503Z,52.80
2019-03-30T07:36:31.376Z,50.11
2019-03-30T07:39:05.828Z,52.23
2019-03-30T07:41:42.308Z,54.05
2019-03-30T07:44:18.757Z,55.81
2019-03-30T07:46:53.038Z,57.55
2019-03-30T07:49:26.898Z,58.33
2019-03-30T07:52:00.880Z,59.30
2019-03-30T07:54:35.243Z,60.34
2019-03-30T07:57:16.902Z,60.76
2019-03-30T08:00:04.271Z,61.04
2019-03-30T08:02:56.328Z,61.41
2019-03-30T08:05:30.294Z,62.46
2019-03-30T08:08:04.630Z,63.80
2019-03-30T08:10:39.032Z,51.10
2019-03-30T08:13:13.158Z,50.84
2019-03-30T08:15:47.543Z,51.97
2019-03-30T08:18:21.499Z,54.00
2019-03-30T08:20:55.176Z,54.75
2019-03-30T08:23:39.736Z,54.54
2019-03-30T08:26:04.396Z,54.40
2019-03-30T08:28:38.105Z,55.73
2019-03-30T08:31:12.036Z,56.70
2019-03-30T08:33:45.825Z,54.76
2019-03-30T08:36:19.751Z,55.45
2019-03-30T08:38:53.394Z,56.03
2019-03-30T08:41:27.169Z,54.65
2019-03-30T08:44:00.900Z,54.55
2019-03-30T08:46:34.547Z,53.02
2019-03-30T08:49:09.456Z,54.06
2019-03-30T08:51:43.255Z,53.51
2019-03-30T08:54:16.998Z,53.61
2019-03-30T08:56:50.683Z,54.37
2019-03-30T08:59:24.438Z,51.18
2019-03-30T09:01:59.340Z,48.85
2019-03-30T09:04:33.025Z,49.28
2019-03-30T09:07:16.031Z,49.22
2019-03-30T09:09:49.802Z,47.44
2019-03-30T09:12:25.174Z,48.25
2019-03-30T09:14:59.043Z,46.11
2019-03-30T09:17:37.153Z,46.78
2019-03-30T09:20:15.100Z,46.09
2019-03-30T09:22:49.160Z,43.87
2019-03-30T09:25:22.774Z,44.34
2019-03-30T09:27:56.353Z,42.43
2019-03-30T09:30:30.950Z,43.28
2019-03-30T09:33:04.736Z,42.00
2019-03-30T09:35:38.450Z,43.03
2019-03-30T09:38:14.784Z,42.52
2019-03-30T09:40:47.771Z,43.95
2019-03-30T09:43:23.533Z,42.98
2019-03-30T09:45:57.497Z,41.23
2019-03-30T09:48:34.343Z,41.55
2019-03-30T09:51:12.142Z,40.87
2019-03-30T09:53:49.150Z,40.77
2019-03-30T09:56:24.094Z,41.08
2019-03-30T09:59:05.472Z,41.40
2019-03-30T10:01:39.201Z,40.41
2019-03-30T10:04:12.999Z,39.05
2019-03-30T10:06:46.726Z,39.01
2019-03-30T10:09:22.401Z,38.36
2019-03-30T10:11:58.868Z,38.17
2019-03-30T10:14:32.964Z,39.15
2019-03-30T10:17:07.773Z,37.12
2019-03-30T10:19:41.412Z,37.85
2019-03-30T10:22:16.569Z,36.92
2019-03-30T10:24:52.072Z,37.52
2019-03-30T10:27:26.087Z,37.38
2019-03-30T10:30:09.198Z,37.15
2019-03-30T10:32:42.929Z,36.56
2019-03-30T10:35:20.410Z,37.57
2019-03-30T10:37:54.436Z,36.76
2019-03-30T10:40:28.197Z,36.78
2019-03-30T10:43:05.311Z,36.78
2019-03-30T10:45:41.889Z,37.52
2019-03-30T10:48:19.860Z,36.55
2019-03-30T10:50:53.754Z,38.69
2019-03-30T10:53:28.248Z,39.03
2019-03-30T10:56:01.982Z,38.86
2019-03-30T10:58:37.296Z,38.44
2019-03-30T11:01:12.846Z,39.37
2019-03-30T11:03:46.560Z,38.39
2019-03-30T11:06:20.326Z,39.53
2019-03-30T11:08:56.879Z,39.05
2019-03-30T11:11:30.833Z,39.55
2019-03-30T11:14:07.749Z,40.07
2019-03-30T11:16:46.559Z,40.57
2019-03-30T11:19:20.645Z,39.97
2019-03-30T11:21:57.744Z,40.09
2019-03-30T11:24:33.217Z,39.93
2019-03-30T11:27:07.287Z,39.12
2019-03-30T11:29:41.716Z,38.55
2019-03-30T11:32:28.354Z,39.17
2019-03-30T11:35:08.443Z,37.97
2019-03-30T11:37:43.025Z,37.53
2019-03-30T11:40:21.186Z,38.13
2019-03-30T11:42:59.203Z,39.37
2019-03-30T11:45:35.905Z,39.06
2019-03-30T11:48:11.267Z,38.57
2019-03-30T11:50:44.949Z,38.22
2019-03-30T11:53:18.881Z,38.45
2019-03-30T11:55:52.870Z,38.89
2019-03-30T11:58:26.575Z,37.67
2019-03-30T12:01:00.902Z,37.13
2019-03-30T12:03:34.740Z,37.15
2019-03-30T12:06:10.588Z,37.68
2019-03-30T12:08:45.711Z,37.28
2019-03-30T12:11:20.016Z,37.28
2019-03-30T12:13:54.018Z,37.44
2019-03-30T12:16:28.591Z,37.32
2019-03-30T12:19:02.672Z,36.87
2019-03-30T12:21:36.523Z,36.89
2019-03-30T12:24:10.276Z,36.75
2019-03-30T12:26:44.055Z,37.88
2019-03-30T12:29:17.909Z,37.61
2019-03-30T12:31:51.615Z,38.27
2019-03-30T12:34:25.341Z,38.92
2019-03-30T12:36:59.009Z,38.45
2019-03-30T12:39:32.813Z,38.46
2019-03-30T12:42:06.490Z,38.15
2019-03-30T12:44:40.257Z,37.27
2019-03-30T12:47:14.560Z,38.05
2019-03-30T12:49:48.236Z,38.34
2019-03-30T12:52:22.046Z,38.26
2019-03-30T12:54:55.643Z,38.57
2019-03-30T12:57:29.393Z,37.36
2019-03-30T13:00:02.995Z,38.42
2019-03-30T13:02:36.754Z,38.92
2019-03-30T13:05:10.538Z,38.89
2019-03-30T13:07:44.405Z,38.17
2019-03-30T13:10:19.539Z,38.72
2019-03-30T13:12:53.297Z,40.30
2019-03-30T13:15:26.947Z,40.43
2019-03-30T13:18:00.601Z,40.60
2019-03-30T13:20:34.397Z,41.23
2019-03-30T13:23:08.049Z,41.38
2019-03-30T13:25:41.733Z,40.42
2019-03-30T13:28:15.687Z,41.26
2019-03-30T13:30:49.325Z,41.51
2019-03-30T13:33:23.023Z,41.59
2019-03-30T13:35:56.930Z,43.19
2019-03-30T13:38:30.767Z,43.43
2019-03-30T13:41:04.710Z,43.60
2019-03-30T13:43:38.353Z,44.58
2019-03-30T13:46:12.115Z,44.38
2019-03-30T13:48:45.914Z,43.99
2019-03-30T13:51:19.543Z,44.08
2019-03-30T13:53:53.252Z,43.04
2019-03-30T13:56:26.982Z,43.67
2019-03-30T13:59:00.818Z,43.70
2019-03-30T14:01:34.562Z,44.68
2019-03-30T14:04:08.199Z,44.35
2019-03-30T14:06:41.977Z,44.73
2019-03-30T14:09:17.351Z,44.06
2019-03-30T14:11:51.135Z,44.88
2019-03-30T14:14:24.750Z,43.89
2019-03-30T14:16:58.658Z,43.83
2019-03-30T14:19:32.348Z,43.78
2019-03-30T14:22:06.044Z,43.29
2019-03-30T14:24:46.644Z,43.86
2019-03-30T14:27:20.266Z,43.35
2019-03-30T14:29:54.497Z,43.19
2019-03-30T14:32:28.247Z,42.92
2019-03-30T14:35:01.895Z,43.44
2019-03-30T14:37:35.524Z,43.64
2019-03-30T14:40:10.707Z,43.66
2019-03-30T14:42:45.509Z,44.41
2019-03-30T14:45:19.556Z,45.28
2019-03-30T14:47:53.358Z,45.24
2019-03-30T14:50:28.066Z,44.43
2019-03-30T14:53:02.018Z,44.53
2019-03-30T14:55:39.312Z,45.20
2019-03-30T14:58:11.101Z,44.54
2019-03-30T15:00:44.861Z,44.67
2019-03-30T15:03:18.539Z,42.45
2019-03-30T15:05:52.202Z,42.44
2019-03-30T15:08:25.977Z,43.98
2019-03-30T15:10:59.867Z,44.03
2019-03-30T15:13:33.552Z,43.40
2019-03-30T15:16:08.302Z,43.78
2019-03-30T15:18:44.422Z,44.52
2019-03-30T15:21:18.205Z,44.31
2019-03-30T15:23:51.883Z,44.86
2019-03-30T15:26:25.559Z,44.27
2019-03-30T15:28:59.287Z,44.97
2019-03-30T15:31:32.909Z,45.19
2019-03-30T15:34:06.536Z,45.40
2019-03-30T15:36:40.305Z,45.74
2019-03-30T15:39:14.023Z,45.63
2019-03-30T15:41:47.729Z,45.00
2019-03-30T15:44:21.443Z,45.53
2019-03-30T15:46:56.571Z,45.27
2019-03-30T15:49:30.208Z,45.13
2019-03-30T15:52:13.869Z,45.36
2019-03-30T15:54:39.316Z,45.32
2019-03-30T15:57:14.551Z,46.05
2019-03-30T15:59:48.435Z,45.92
2019-03-30T16:02:22.002Z,46.76
2019-03-30T16:04:55.662Z,46.87
2019-03-30T16:07:31.043Z,46.89
2019-03-30T16:10:04.729Z,47.15
2019-03-30T16:12:38.326Z,47.02
2019-03-30T16:15:12.114Z,46.87
2019-03-30T16:17:45.835Z,46.77
2019-03-30T16:20:19.619Z,46.82
2019-03-30T16:22:53.303Z,46.74
2019-03-30T16:25:29.457Z,47.36
2019-03-30T16:28:03.102Z,47.67
2019-03-30T16:30:36.848Z,47.21
2019-03-30T16:33:10.528Z,47.79
2019-03-30T16:35:44.291Z,47.61
2019-03-30T16:38:17.969Z,47.93
2019-03-30T16:40:51.613Z,48.71
2019-03-30T16:43:25.212Z,48.58
2019-03-30T16:45:59.040Z,49.14
2019-03-30T16:48:33.127Z,49.93
2019-03-30T16:51:06.878Z,49.43
2019-03-30T16:53:40.553Z,49.56
2019-03-30T16:56:14.297Z,50.31
2019-03-30T16:58:48.011Z,51.17
2019-03-30T17:01:21.776Z,51.48
2019-03-30T17:03:55.391Z,51.64
2019-03-30T17:06:30.199Z,51.92
2019-03-30T17:09:05.219Z,51.26
2019-03-30T17:11:39.218Z,51.10
2019-03-30T17:14:13.024Z,51.34
2019-03-30T17:16:49.043Z,51.33
2019-03-30T17:19:23.043Z,51.54
2019-03-30T17:21:56.737Z,52.09
2019-03-30T17:24:30.807Z,51.86
2019-03-30T17:27:04.542Z,52.05
2019-03-30T17:29:38.404Z,52.24
2019-03-30T17:32:12.200Z,52.82
2019-03-30T17:34:45.997Z,53.45
2019-03-30T17:37:19.740Z,53.86
2019-03-30T17:39:53.753Z,54.21
2019-03-30T17:42:27.456Z,54.38
2019-03-30T17:45:02.219Z,54.31
2019-03-30T17:47:37.040Z,54.58
2019-03-30T17:50:12.819Z,55.11
2019-03-30T17:52:46.528Z,55.12
2019-03-30T17:55:33.014Z,55.42
2019-03-30T17:57:55.876Z,55.95
2019-03-30T18:00:29.948Z,56.17
2019-03-30T18:03:03.898Z,56.57
2019-03-30T18:05:37.765Z,56.98
2019-03-30T18:08:12.823Z,57.02
2019-03-30T18:10:46.634Z,57.06
2019-03-30T18:13:20.390Z,57.39
2019-03-30T18:15:54.124Z,57.50
2019-03-30T18:18:27.814Z,57.83
2019-03-30T18:21:01.615Z,58.18
2019-03-30T18:23:35.373Z,58.34
2019-03-30T18:26:10.696Z,58.54
2019-03-30T18:28:44.508Z,59.05
2019-03-30T18:31:19.068Z,59.44
2019-03-30T18:33:53.157Z,59.58
2019-03-30T18:36:27.911Z,60.29
2019-03-30T18:39:09.505Z,60.36
2019-03-30T18:41:39.074Z,60.57
2019-03-30T18:44:12.781Z,60.76
2019-03-30T18:46:46.559Z,61.01
2019-03-30T18:49:20.287Z,61.16
2019-03-30T18:51:54.783Z,61.15
2019-03-30T18:54:28.606Z,61.44
2019-03-30T18:57:02.618Z,62.08
2019-03-30T18:59:36.433Z,62.37
2019-03-30T19:02:10.200Z,62.42
2019-03-30T19:04:43.981Z,62.73
2019-03-30T19:07:17.802Z,64.88
2019-03-30T19:09:57.901Z,54.98
2019-03-30T19:12:36.901Z,48.27
2019-03-30T19:15:11.603Z,49.79
2019-03-30T19:17:46.230Z,51.47
2019-03-30T19:20:21.799Z,52.92
2019-03-30T19:22:55.872Z,53.91
2019-03-30T19:25:30.997Z,54.50
2019-03-30T19:28:05.908Z,55.16
2019-03-30T19:30:42.219Z,55.75
2019-03-30T19:33:15.489Z,56.61
2019-03-30T19:35:49.441Z,57.32
2019-03-30T19:38:23.480Z,58.07
2019-03-30T19:40:57.577Z,58.80
2019-03-30T19:43:32.044Z,59.41
2019-03-30T19:46:26.740Z,59.92
2019-03-30T19:49:10.178Z,60.66
2019-03-30T19:51:54.618Z,61.24
2019-03-30T19:54:32.747Z,62.10
2019-03-30T19:57:07.146Z,62.49
2019-03-30T19:59:41.020Z,64.92
2019-03-30T20:02:15.595Z,54.65
2019-03-30T20:04:49.942Z,48.20
2019-03-30T20:07:29.945Z,49.82
2019-03-30T20:10:04.356Z,51.54
2019-03-30T20:12:38.945Z,53.06
2019-03-30T20:15:41.761Z,54.12
2019-03-30T20:18:16.511Z,55.19
2019-03-30T20:20:50.783Z,56.03
2019-03-30T20:23:27.433Z,56.57
2019-03-30T20:26:01.628Z,57.15
2019-03-30T20:28:36.275Z,57.69
2019-03-30T20:31:10.773Z,58.46
2019-03-30T20:33:46.723Z,58.83
2019-03-30T20:36:21.005Z,59.63
2019-03-30T20:38:55.124Z,60.36
2019-03-30T20:41:29.336Z,60.66
2019-03-30T20:44:03.442Z,60.84
2019-03-30T20:46:37.524Z,61.51
2019-03-30T20:49:11.584Z,61.88
2019-03-30T20:51:46.021Z,62.10
2019-03-30T20:54:20.203Z,62.66
2019-03-30T20:56:54.590Z,64.61
2019-03-30T20:59:39.263Z,54.70
2019-03-30T21:02:12.925Z,48.11
2019-03-30T21:04:51.920Z,49.90
2019-03-30T21:07:26.058Z,52.07
2019-03-30T21:10:01.535Z,53.31
2019-03-30T21:12:35.346Z,54.47
2019-03-30T21:15:09.796Z,55.70
2019-03-30T21:17:43.754Z,56.25
2019-03-30T21:20:17.677Z,56.75
2019-03-30T21:22:53.360Z,57.95
2019-03-30T21:25:27.248Z,58.89
2019-03-30T21:28:02.606Z,59.40
2019-03-30T21:30:37.304Z,60.04
2019-03-30T21:33:12.590Z,60.45
2019-03-30T21:35:46.725Z,61.28
2019-03-30T21:38:20.640Z,61.90
2019-03-30T21:40:57.016Z,62.84
2019-03-30T21:43:30.879Z,65.15
2019-03-30T21:46:04.816Z,53.56
2019-03-30T21:48:38.718Z,47.54
2019-03-30T21:51:12.395Z,49.50
2019-03-30T21:53:48.167Z,51.49
2019-03-30T21:56:22.096Z,53.32
2019-03-30T21:58:58.329Z,54.86
2019-03-30T22:01:34.154Z,56.10
2019-03-30T22:04:07.877Z,57.10
2019-03-30T22:06:41.935Z,57.77
2019-03-30T22:09:15.842Z,58.92
2019-03-30T22:11:49.852Z,59.92
2019-03-30T22:14:23.773Z,60.38
2019-03-30T22:16:57.691Z,61.33
2019-03-30T22:19:31.493Z,61.58
2019-03-30T22:22:05.177Z,62.06
2019-03-30T22:24:38.995Z,65.63
2019-03-30T22:27:12.887Z,55.49
2019-03-30T22:29:48.190Z,48.65
2019-03-30T22:32:21.958Z,50.30
2019-03-30T22:34:55.707Z,52.44
2019-03-30T22:37:29.515Z,54.05
2019-03-30T22:40:03.228Z,55.33
2019-03-30T22:42:36.900Z,56.36
2019-03-30T22:45:10.887Z,57.04
2019-03-30T22:47:44.697Z,57.99
2019-03-30T22:50:18.572Z,58.87
2019-03-30T22:52:52.259Z,60.15
2019-03-30T22:55:26.156Z,60.83
2019-03-30T22:58:00.213Z,62.16
2019-03-30T23:00:51.589Z,65.40
2019-03-30T23:03:25.728Z,53.67
2019-03-30T23:05:59.968Z,48.12
2019-03-30T23:08:33.683Z,50.08
2019-03-30T23:11:07.324Z,52.19
2019-03-30T23:13:41.053Z,54.16
2019-03-30T23:16:14.870Z,55.31
2019-03-30T23:18:48.626Z,56.33
2019-03-30T23:21:22.509Z,57.10
2019-03-30T23:23:56.752Z,58.17
2019-03-30T23:26:30.488Z,58.75
2019-03-30T23:29:04.240Z,59.67
2019-03-30T23:31:38.013Z,60.28
2019-03-30T23:34:11.793Z,61.17
2019-03-30T23:36:45.537Z,61.67
2019-03-30T23:39:19.328Z,62.62
2019-03-30T23:41:53.184Z,65.78
2019-03-30T23:44:26.943Z,55.40
2019-03-30T23:47:00.706Z,49.24
2019-03-30T23:49:34.616Z,51.21
2019-03-30T23:52:08.321Z,53.29
2019-03-30T23:54:42.015Z,54.77
2019-03-30T23:57:15.981Z,56.07
2019-03-30T23:59:49.689Z,56.91
